Time;durP1;ratioP1;P1;durP2;ratioP2;P2;SDS_P1;SDS_P2;PMS_P1;PMS_P2;Temp;Humidity;BMP_temperature;BMP_pressure;BME280_temperature;BME280_humidity;BME280_pressure;Samples;Min_cycle;Max_cycle;Signal;HPM_P1;HPM_P2
2022/11/03 00:00:04;;;;;;;11.10;2.85;;;;;;;12.89;100.00;101369.22;5278139;28;20020;-79
2022/11/03 00:02:35;;;;;;;15.15;3.17;;;;;;;12.94;100.00;101368.00;5278785;28;20058;-79
2022/11/03 00:06:03;;;;;;;10.13;2.83;;;;;;;12.94;100.00;101362.72;5279081;28;20091;-79
2022/11/03 00:08:01;;;;;;;10.15;2.65;;;;;;;12.96;100.00;101361.63;5279856;28;20386;-79
2022/11/03 00:10:32;;;;;;;9.85;2.60;;;;;;;12.93;100.00;101366.31;5276348;28;20028;-79
2022/11/03 00:13:03;;;;;;;13.45;3.40;;;;;;;12.95;100.00;101367.00;5276972;28;20035;-79
2022/11/03 00:15:34;;;;;;;11.55;3.38;;;;;;;12.98;100.00;101361.50;5277485;28;20089;-79
2022/11/03 00:18:06;;;;;;;16.70;3.75;;;;;;;12.98;100.00;101348.34;5275218;28;20074;-79
2022/11/03 00:20:37;;;;;;;10.93;2.63;;;;;;;12.97;100.00;101344.88;5277430;28;20031;-79
2022/11/03 00:23:08;;;;;;;11.43;2.85;;;;;;;13.02;100.00;101336.59;5276720;28;20343;-79
2022/11/03 00:25:39;;;;;;;11.77;3.40;;;;;;;12.96;100.00;101342.41;5276524;28;20035;-79
2022/11/03 00:28:11;;;;;;;11.63;3.17;;;;;;;12.96;100.00;101343.22;5276480;28;20066;-79
2022/11/03 00:30:42;;;;;;;10.25;3.10;;;;;;;12.99;100.00;101335.03;5276329;28;20067;-79
2022/11/03 00:33:13;;;;;;;12.15;2.80;;;;;;;13.00;100.00;101330.66;5277158;28;20024;-79
2022/11/03 00:35:44;;;;;;;11.80;3.40;;;;;;;13.02;100.00;101337.41;5276311;28;20020;-79
2022/11/03 00:38:16;;;;;;;10.65;2.85;;;;;;;13.01;100.00;101324.41;5276231;28;20043;-79
2022/11/03 00:40:54;;;;;;;10.82;2.53;;;;;;;13.09;100.00;101314.88;5276276;28;20028;-79
2022/11/03 00:43:27;;;;;;;12.18;3.70;;;;;;;12.99;100.00;101311.38;5275480;28;20085;-79
2022/11/03 00:45:59;;;;;;;11.48;2.65;;;;;;;13.01;100.00;101312.09;5279261;28;20029;-78
2022/11/03 00:48:32;;;;;;;10.82;2.80;;;;;;;13.00;100.00;101305.16;5280786;28;20025;-79
2022/11/03 00:51:03;;;;;;;;;;;;;;;13.56;100.00;101307.22;5279014;28;20031;-79
2022/11/03 00:53:39;;;;;;;9.07;2.35;;;;;;;13.14;100.00;101304.78;5276158;28;19908;-79
2022/11/03 00:56:16;;;;;;;10.50;2.53;;;;;;;13.09;100.00;101301.72;5276499;28;20047;-79
2022/11/03 00:58:49;;;;;;;9.35;2.53;;;;;;;13.05;100.00;101288.97;5276646;28;20025;-79
2022/11/03 01:01:22;;;;;;;11.45;3.72;;;;;;;13.10;100.00;101287.59;5274751;28;20679;-79
2022/11/03 01:06:48;;;;;;;14.35;3.00;;;;;;;13.11;100.00;101273.50;5277104;28;20401;-79
2022/11/03 01:09:21;;;;;;;13.40;3.13;;;;;;;13.15;100.00;101274.06;5276380;28;20028;-79
2022/11/03 01:12:00;;;;;;;14.73;3.65;;;;;;;13.19;100.00;101271.97;5276078;28;20078;-79
2022/11/03 01:14:35;;;;;;;10.32;2.85;;;;;;;13.20;100.00;101277.09;5276546;28;20111;-79
2022/11/03 01:17:09;;;;;;;10.93;3.03;;;;;;;13.20;100.00;101260.47;5277435;28;20020;-79
2022/11/03 01:19:40;;;;;;;12.10;2.95;;;;;;;13.23;100.00;101268.97;5276209;28;20017;-79
2022/11/03 01:22:13;;;;;;;12.55;2.42;;;;;;;13.24;100.00;101275.06;5276352;28;20036;-79
2022/11/03 01:24:44;;;;;;;8.77;3.03;;;;;;;13.24;100.00;101267.16;5279674;28;20051;-79
2022/11/03 01:27:18;;;;;;;9.02;2.30;;;;;;;13.21;100.00;101260.34;5280829;28;20678;-79
2022/11/03 01:29:49;;;;;;;10.45;2.65;;;;;;;13.21;100.00;101255.06;5280224;28;20036;-79
2022/11/03 01:32:21;;;;;;;10.48;2.60;;;;;;;13.24;100.00;101254.00;5279528;28;20027;-79
2022/11/03 01:34:52;;;;;;;14.60;3.10;;;;;;;13.24;100.00;101252.19;5280068;28;20493;-79
2022/11/03 01:37:24;;;;;;;11.95;2.60;;;;;;;13.24;100.00;101246.94;5280480;28;20465;-79
2022/11/03 01:39:55;;;;;;;8.50;2.30;;;;;;;13.23;100.00;101244.44;5278448;28;20028;-79
2022/11/03 01:42:26;;;;;;;8.85;2.90;;;;;;;13.25;100.00;101239.88;5279068;28;20032;-79
2022/11/03 01:44:57;;;;;;;11.60;3.17;;;;;;;13.26;100.00;101231.00;5279924;28;20037;-79
2022/11/03 01:47:32;;;;;;;9.93;2.28;;;;;;;13.31;100.00;101223.53;5279996;28;20028;-79
2022/11/03 01:50:10;;;;;;;9.75;3.20;;;;;;;13.30;100.00;101220.09;5278353;28;20489;-79
2022/11/03 01:52:49;;;;;;;8.85;2.50;;;;;;;13.32;100.00;101209.41;5280944;28;20044;-79
2022/11/03 01:55:35;;;;;;;8.45;2.67;;;;;;;13.34;100.00;101216.22;5281049;28;20487;-79
2022/11/03 01:58:12;;;;;;;9.55;2.80;;;;;;;13.30;100.00;101214.81;5280592;28;20412;-79
2022/11/03 02:00:47;;;;;;;8.98;2.30;;;;;;;13.28;100.00;101216.75;5280412;28;20040;-79
2022/11/03 02:03:21;;;;;;;12.95;2.80;;;;;;;13.32;100.00;101217.31;5280703;28;20068;-79
2022/11/03 02:05:55;;;;;;;8.65;2.63;;;;;;;13.28;100.00;101198.34;5280467;28;20027;-79
2022/11/03 02:09:01;;;;;;;12.98;3.20;;;;;;;13.43;100.00;101206.63;5278724;28;20393;-79
2022/11/03 02:14:23;;;;;;;10.05;2.67;;;;;;;13.28;100.00;101193.06;5278366;28;20040;-79
2022/11/03 02:17:00;;;;;;;9.18;2.70;;;;;;;13.29;100.00;101191.25;5280475;28;20461;-78
2022/11/03 02:19:41;;;;;;;10.60;2.83;;;;;;;13.35;100.00;101193.34;5277823;28;20567;-79
2022/11/03 02:22:49;;;;;;;13.55;3.00;;;;;;;13.51;100.00;101192.78;5278580;28;20039;-79
2022/11/03 02:25:43;;;;;;;11.65;3.13;;;;;;;13.49;100.00;101186.84;5279177;28;20032;-79
2022/11/03 02:28:18;;;;;;;12.95;3.30;;;;;;;13.31;100.00;101179.63;5279575;28;20081;-79
2022/11/03 02:30:58;;;;;;;12.65;3.40;;;;;;;13.31;100.00;101177.00;5279254;28;20058;-79
2022/11/03 02:33:36;;;;;;;8.30;2.40;;;;;;;13.29;100.00;101180.75;5278951;28;20450;-79
2022/11/03 02:36:14;;;;;;;11.55;2.90;;;;;;;13.30;100.00;101164.84;5279236;28;20024;-79
2022/11/03 02:38:57;;;;;;;8.63;2.38;;;;;;;13.35;100.00;101162.59;5278201;28;20051;-79
2022/11/03 02:41:32;;;;;;;13.50;3.10;;;;;;;13.28;100.00;101163.28;5278257;28;20571;-79
2022/11/03 02:44:06;;;;;;;11.02;2.78;;;;;;;13.22;100.00;101154.16;5279185;28;20497;-79
2022/11/03 02:46:41;;;;;;;8.07;2.78;;;;;;;13.15;100.00;101140.72;5279418;28;20086;-79
2022/11/03 02:49:12;;;;;;;10.52;2.83;;;;;;;13.12;100.00;101140.97;5279735;28;20023;-79
2022/11/03 02:51:43;;;;;;;8.80;2.40;;;;;;;13.18;100.00;101136.94;5277945;28;20383;-79
2022/11/03 02:54:21;;;;;;;9.75;2.60;;;;;;;13.20;100.00;101142.09;5279017;28;20028;-79
2022/11/03 02:56:58;;;;;;;9.40;2.75;;;;;;;13.20;100.00;101132.41;5277382;28;20103;-79
2022/11/03 02:59:39;;;;;;;7.50;2.40;;;;;;;13.24;100.00;101131.16;5278365;28;20125;-79
2022/11/03 03:02:18;;;;;;;9.38;2.50;;;;;;;13.20;100.00;101121.03;5272194;28;20025;-79
2022/11/03 03:04:54;;;;;;;12.02;3.03;;;;;;;13.25;100.00;101124.94;5275532;28;20101;-79
2022/11/03 03:07:34;;;;;;;7.05;2.40;;;;;;;13.19;100.00;101124.66;5277487;28;20032;-79
2022/11/03 03:10:13;;;;;;;9.65;2.47;;;;;;;13.25;100.00;101108.31;5277373;28;20646;-79
2022/11/03 03:12:51;;;;;;;12.77;2.88;;;;;;;13.24;100.00;101104.88;5276679;28;20024;-79
2022/11/03 03:15:34;;;;;;;7.13;2.50;;;;;;;13.22;100.00;101112.06;5278863;28;20029;-79
2022/11/03 03:18:21;;;;;;;9.90;2.67;;;;;;;13.28;100.00;101114.13;5275921;28;20111;-78
2022/11/03 03:21:00;;;;;;;11.63;2.80;;;;;;;13.28;100.00;101100.97;5278411;28;20024;-79
2022/11/03 03:23:39;;;;;;;12.95;3.53;;;;;;;13.27;100.00;101101.13;5278889;28;20068;-79
2022/11/03 03:26:17;;;;;;;13.85;3.05;;;;;;;13.26;100.00;101094.19;5279453;28;20020;-79
2022/11/03 03:28:54;;;;;;;6.63;2.10;;;;;;;13.29;100.00;101097.38;5278551;28;20032;-79
2022/11/03 03:31:29;;;;;;;9.25;2.25;;;;;;;13.23;100.00;101092.69;5278300;28;20085;-79
2022/11/03 03:34:02;;;;;;;11.07;3.00;;;;;;;13.19;100.00;101086.03;5279242;28;20024;-79
2022/11/03 03:36:36;;;;;;;8.83;3.00;;;;;;;13.21;100.00;101091.13;5276923;28;20031;-79
2022/11/03 03:39:11;;;;;;;9.73;2.78;;;;;;;13.23;100.00;101087.44;5278304;28;20048;-79
2022/11/03 03:41:44;;;;;;;11.43;2.95;;;;;;;13.12;100.00;101082.28;5277583;28;20020;-79
2022/11/03 03:44:16;;;;;;;15.43;3.78;;;;;;;13.15;100.00;101082.00;5278242;28;20549;-79
2022/11/03 03:46:56;;;;;;;7.28;2.58;;;;;;;13.23;100.00;101071.63;5277337;28;20107;-79
2022/11/03 03:49:27;;;;;;;10.25;2.88;;;;;;;13.19;100.00;101057.06;5278347;28;20477;-79
2022/11/03 03:51:59;;;;;;;11.93;2.92;;;;;;;13.25;100.00;101046.00;5274918;28;20051;-79
2022/11/03 03:54:31;;;;;;;8.07;2.40;;;;;;;13.27;100.00;101054.59;5276577;28;20083;-79
2022/11/03 03:57:04;;;;;;;8.63;2.70;;;;;;;13.15;100.00;101035.47;5278305;28;20115;-79
2022/11/03 03:59:35;;;;;;;11.57;2.95;;;;;;;13.26;100.00;101050.31;5277034;28;20020;-79
2022/11/03 04:02:07;;;;;;;12.82;2.75;;;;;;;13.27;100.00;101051.97;5275844;28;20031;-79
2022/11/03 04:04:39;;;;;;;10.38;2.72;;;;;;;13.25;100.00;101039.91;5274254;28;20027;-79
2022/11/03 04:10:00;;;;;;;10.13;2.80;;;;;;;13.30;100.00;101054.31;5278250;28;20032;-79
2022/11/03 04:23:50;;;;;;;12.52;3.20;;;;;;;13.27;100.00;101033.53;5277627;28;20036;-79
2022/11/03 04:26:22;;;;;;;8.88;2.65;;;;;;;13.29;100.00;101031.59;5278142;28;20028;-79
2022/11/03 04:28:54;;;;;;;12.85;3.05;;;;;;;13.27;100.00;101027.47;5278857;28;20028;-79
2022/11/03 04:31:30;;;;;;;11.45;3.03;;;;;;;13.31;100.00;101016.50;5278541;28;20483;-79
2022/11/03 04:34:09;;;;;;;9.15;2.35;;;;;;;13.32;100.00;101019.94;5275908;28;20024;-79
2022/11/03 04:36:40;;;;;;;8.10;2.50;;;;;;;13.29;100.00;101018.44;5276875;28;20029;-79
2022/11/03 04:39:18;;;;;;;9.85;2.33;;;;;;;13.37;100.00;101018.56;5278414;28;20431;-79
2022/11/03 04:41:49;;;;;;;9.90;2.20;;;;;;;13.33;100.00;101013.72;5276568;28;20109;-79
2022/11/03 04:44:20;;;;;;;8.68;2.72;;;;;;;13.41;100.00;101016.47;5278255;28;20443;-79
2022/11/03 04:46:53;;;;;;;10.68;2.90;;;;;;;13.38;100.00;101020.22;5278644;28;20025;-79
2022/11/03 04:49:24;;;;;;;10.55;2.40;;;;;;;13.37;100.00;101005.41;5278025;28;20033;-79
2022/11/03 04:51:55;;;;;;;9.30;2.60;;;;;;;13.38;100.00;101001.78;5275906;28;20045;-79
2022/11/03 04:54:27;;;;;;;10.15;2.70;;;;;;;13.35;100.00;100999.44;5278034;28;20105;-79
2022/11/03 04:56:58;;;;;;;12.75;2.75;;;;;;;13.38;100.00;100995.69;5277322;28;20025;-79
2022/11/03 04:59:30;;;;;;;7.93;2.25;;;;;;;13.36;100.00;100981.84;5279851;28;20032;-79
2022/11/03 05:02:07;;;;;;;7.95;2.80;;;;;;;13.48;100.00;100980.69;5279405;28;20032;-79
2022/11/03 05:04:40;;;;;;;9.05;2.70;;;;;;;13.45;100.00;100980.13;5280882;28;20487;-79
2022/11/03 05:07:31;;;;;;;7.60;2.25;;;;;;;13.51;100.00;100982.19;5278847;28;20077;-79
2022/11/03 05:10:05;;;;;;;12.40;2.70;;;;;;;13.39;100.00;100978.94;5280329;28;20032;-79
2022/11/03 05:12:36;;;;;;;10.18;2.80;;;;;;;13.40;100.00;100975.31;5280975;28;20100;-79
2022/11/03 05:15:27;;;;;;;12.63;3.15;;;;;;;13.55;100.00;100963.34;5281279;28;20111;-79
2022/11/03 05:18:00;;;;;;;9.57;2.53;;;;;;;13.43;100.00;100974.22;5279711;28;20025;-79
2022/11/03 05:21:04;;;;;;;11.35;2.85;;;;;;;13.58;100.00;100968.31;5281263;28;20098;-79
2022/11/03 05:23:43;;;;;;;7.88;2.70;;;;;;;13.50;100.00;100960.31;5274007;28;20123;-79
2022/11/03 05:26:18;;;;;;;10.68;2.83;;;;;;;13.54;100.00;100958.22;5279252;28;21323;-79
2022/11/03 05:28:58;;;;;;;10.50;2.97;;;;;;;13.56;100.00;100954.47;5281870;28;20024;-79
2022/11/03 05:31:33;;;;;;;10.35;2.58;;;;;;;13.52;100.00;100950.47;5280326;28;20040;-79
2022/11/03 05:34:25;;;;;;;8.23;2.42;;;;;;;13.67;100.00;100944.72;5279879;28;20082;-79
2022/11/03 05:37:18;;;;;;;11.68;2.80;;;;;;;13.67;100.00;100945.53;5280793;28;20024;-79
2022/11/03 05:39:51;;;;;;;12.10;2.53;;;;;;;13.54;100.00;100934.53;5280384;28;20031;-79
2022/11/03 05:42:22;;;;;;;10.27;2.50;;;;;;;13.59;100.00;100929.66;5280449;28;20029;-79
2022/11/03 05:44:54;;;;;;;10.33;2.27;;;;;;;13.52;100.00;100929.41;5279368;28;20039;-79
2022/11/03 05:47:38;;;;;;;13.20;2.80;;;;;;;13.65;100.00;100918.53;5280881;28;20040;-79
2022/11/03 05:50:23;;;;;;;9.50;2.92;;;;;;;13.65;100.00;100905.38;5279730;28;20020;-79
2022/11/03 05:53:13;;;;;;;11.93;3.15;;;;;;;13.73;100.00;100923.06;5279053;28;20071;-79
2022/11/03 05:55:44;;;;;;;10.55;2.80;;;;;;;13.52;100.00;100905.72;5277426;28;20028;-78
2022/11/03 05:58:31;;;;;;;10.88;2.75;;;;;;;13.68;100.00;100901.63;5279199;28;20362;-79
2022/11/03 06:01:17;;;;;;;13.73;2.67;;;;;;;13.79;100.00;100910.13;5280435;28;20422;-78
2022/11/03 06:03:48;;;;;;;11.73;3.08;;;;;;;13.56;100.00;100901.84;5280453;28;20024;-78
2022/11/03 06:06:33;;;;;;;11.20;3.03;;;;;;;13.59;100.00;100901.50;5280345;28;20024;-79
2022/11/03 06:09:15;;;;;;;12.93;2.75;;;;;;;13.62;100.00;100884.59;5280097;28;20555;-79
2022/11/03 06:11:48;;;;;;;12.32;2.90;;;;;;;13.48;100.00;100885.09;5278801;28;20098;-78
2022/11/03 06:14:22;;;;;;;7.28;1.88;;;;;;;13.53;100.00;100891.59;5280422;28;20048;-79
2022/11/03 06:16:58;;;;;;;8.18;2.60;;;;;;;13.55;100.00;100891.44;5279773;28;20052;-78
2022/11/03 06:19:31;;;;;;;9.77;2.55;;;;;;;13.53;100.00;100878.44;5278098;28;20036;-78
2022/11/03 06:22:12;;;;;;;11.00;2.50;;;;;;;13.67;100.00;100884.16;5278424;28;20147;-78
2022/11/03 06:24:44;;;;;;;10.18;2.88;;;;;;;13.55;100.00;100883.53;5279927;28;20025;-78
2022/11/03 06:27:21;;;;;;;10.75;2.75;;;;;;;13.58;100.00;100872.72;5280082;28;20023;-79
2022/11/03 06:29:57;;;;;;;7.53;2.50;;;;;;;13.61;100.00;100877.69;5279898;28;20028;-78
2022/11/03 06:32:29;;;;;;;9.93;2.33;;;;;;;13.49;100.00;100868.34;5278556;28;20032;-79
2022/11/03 06:35:00;;;;;;;9.00;2.80;;;;;;;13.58;100.00;100878.81;5280642;28;20496;-79
2022/11/03 06:37:33;;;;;;;8.50;2.58;;;;;;;13.55;100.00;100868.56;5280354;28;20016;-78
2022/11/03 06:40:13;;;;;;;10.95;2.85;;;;;;;13.74;100.00;100869.41;5278939;28;20386;-78
2022/11/03 06:42:45;;;;;;;10.02;2.63;;;;;;;13.60;100.00;100865.53;5280884;28;20029;-78
2022/11/03 06:45:22;;;;;;;9.73;2.78;;;;;;;13.71;100.00;100870.53;5279677;28;20867;-78
2022/11/03 06:47:54;;;;;;;12.80;2.83;;;;;;;13.55;100.00;100863.31;5280973;28;20478;-78
2022/11/03 06:50:30;;;;;;;9.95;2.63;;;;;;;13.71;100.00;100867.06;5279456;28;20027;-78
2022/11/03 06:53:02;;;;;;;9.70;3.22;;;;;;;13.61;100.00;100860.09;5280995;28;20036;-78
2022/11/03 06:55:37;;;;;;;10.65;2.88;;;;;;;13.57;100.00;100863.19;5279997;28;20094;-78
2022/11/03 06:58:31;;;;;;;8.25;2.63;;;;;;;13.81;100.00;100863.41;5280390;28;20020;-78
2022/11/03 07:01:14;;;;;;;8.57;2.60;;;;;;;13.74;100.00;100854.44;5280802;28;20035;-78
2022/11/03 07:03:48;;;;;;;11.23;2.88;;;;;;;13.66;100.00;100859.63;5280424;28;20031;-78
2022/11/03 07:06:24;;;;;;;10.80;2.53;;;;;;;13.64;100.00;100853.72;5278945;28;20082;-78
2022/11/03 07:08:58;;;;;;;9.32;2.30;;;;;;;13.69;100.00;100851.44;5280245;28;20030;-78
2022/11/03 07:11:34;;;;;;;11.05;2.67;;;;;;;13.66;100.00;100849.09;5280170;28;20063;-78
2022/11/03 07:14:13;;;;;;;10.15;2.65;;;;;;;13.76;100.00;100831.44;5279983;28;20479;-78
2022/11/03 07:16:53;;;;;;;8.50;2.50;;;;;;;13.73;100.00;100834.38;5280252;28;20035;-79
2022/11/03 07:19:28;;;;;;;8.68;2.83;;;;;;;13.75;100.00;100842.09;5278116;28;20473;-78
2022/11/03 07:22:03;;;;;;;8.57;2.55;;;;;;;13.76;100.00;100846.41;5279116;28;20036;-78
2022/11/03 07:24:39;;;;;;;8.68;2.30;;;;;;;13.73;100.00;100837.00;5279183;28;20031;-78
2022/11/03 07:27:22;;;;;;;9.77;2.47;;;;;;;13.84;100.00;100842.03;5279535;28;20064;-78
2022/11/03 07:29:59;;;;;;;8.80;2.60;;;;;;;13.84;100.00;100825.41;5279169;28;20020;-78
2022/11/03 07:32:32;;;;;;;8.73;2.47;;;;;;;13.79;100.00;100827.69;5278674;28;20021;-78
2022/11/03 07:35:14;;;;;;;;;;;;;;;14.33;100.00;100823.16;5278896;28;20028;-78
2022/11/03 07:37:48;;;;;;;10.07;2.20;;;;;;;13.85;100.00;100816.53;5279439;28;20421;-78
2022/11/03 07:40:24;;;;;;;7.10;2.25;;;;;;;13.86;100.00;100818.16;5277262;28;20127;-78
2022/11/03 07:42:59;;;;;;;10.98;2.45;;;;;;;13.90;100.00;100826.59;5279687;28;20033;-78
2022/11/03 07:45:50;;;;;;;8.35;2.35;;;;;;;13.98;100.00;100829.28;5280105;28;20439;-78
2022/11/03 07:48:33;;;;;;;10.38;2.78;;;;;;;13.92;100.00;100827.28;5280179;28;20443;-78
2022/11/03 07:51:21;;;;;;;7.23;2.30;;;;;;;14.12;100.00;100832.22;5279531;28;20023;-78
2022/11/03 07:54:14;;;;;;;10.00;2.67;;;;;;;14.11;100.00;100821.84;5279832;28;20349;-78
2022/11/03 07:56:49;;;;;;;8.95;2.65;;;;;;;14.02;100.00;100833.31;5278552;28;20036;-78
2022/11/03 07:59:31;;;;;;;15.48;2.63;;;;;;;13.96;100.00;100820.72;5278736;28;20082;-78
2022/11/03 08:02:30;;;;;;;9.10;2.40;;;;;;;14.14;100.00;100834.72;5280368;28;20033;-78
2022/11/03 08:05:02;;;;;;;9.80;2.97;;;;;;;14.02;100.00;100825.41;5279801;28;20486;-78
2022/11/03 08:07:33;;;;;;;9.07;3.13;;;;;;;14.01;100.00;100823.72;5278961;28;20028;-78
2022/11/03 08:10:06;;;;;;;10.30;2.67;;;;;;;14.03;100.00;100809.44;5279854;28;20020;-78
2022/11/03 08:12:37;;;;;;;12.25;2.50;;;;;;;14.04;100.00;100802.34;5278779;28;20043;-78
2022/11/03 08:15:09;;;;;;;9.38;2.70;;;;;;;14.13;100.00;100811.97;5279294;28;20025;-78
2022/11/03 08:17:40;;;;;;;9.30;2.60;;;;;;;14.12;100.00;100794.50;5279845;28;20520;-78
2022/11/03 08:20:11;;;;;;;9.90;2.40;;;;;;;14.16;100.00;100779.22;5278538;28;20024;-78
2022/11/03 08:22:43;;;;;;;11.63;3.03;;;;;;;14.17;100.00;100776.44;5279575;28;20056;-78
2022/11/03 08:25:14;;;;;;;10.45;2.60;;;;;;;14.12;100.00;100765.53;5279462;28;20024;-78
2022/11/03 08:27:45;;;;;;;8.13;2.40;;;;;;;14.19;100.00;100761.28;5279461;28;20016;-78
2022/11/03 08:30:16;;;;;;;9.30;2.75;;;;;;;14.20;100.00;100762.94;5279451;28;20028;-78
2022/11/03 08:32:48;;;;;;;10.90;2.80;;;;;;;14.26;100.00;100758.88;5279896;28;20166;-78
2022/11/03 08:35:19;;;;;;;8.45;2.63;;;;;;;14.24;100.00;100748.47;5279352;28;20394;-78
2022/11/03 08:37:50;;;;;;;9.48;2.33;;;;;;;14.28;100.00;100735.81;5280436;28;20028;-78
2022/11/03 08:40:22;;;;;;;7.68;2.20;;;;;;;14.37;100.00;100734.88;5279370;28;20057;-78
2022/11/03 08:42:53;;;;;;;8.32;2.28;;;;;;;14.35;100.00;100715.75;5279231;28;20495;-78
2022/11/03 08:45:25;;;;;;;10.10;2.75;;;;;;;14.41;100.00;100709.03;5280361;28;20144;-78
2022/11/03 08:47:56;;;;;;;8.80;2.15;;;;;;;14.42;100.00;100706.22;5279222;28;20090;-78
2022/11/03 08:50:28;;;;;;;10.95;2.33;;;;;;;14.46;100.00;100704.91;5301347;22;20028;-73
2022/11/03 08:52:59;;;;;;;8.52;2.38;;;;;;;14.57;100.00;100695.94;5260169;28;20040;-73
2022/11/03 08:55:30;;;;;;;9.95;2.47;;;;;;;14.60;100.00;100706.16;5262181;28;20040;-73
2022/11/03 08:58:01;;;;;;;8.02;2.35;;;;;;;14.66;100.00;100691.50;5262598;28;20017;-73
2022/11/03 09:00:34;;;;;;;8.48;2.13;;;;;;;14.72;100.00;100686.41;5261881;28;20025;-73
2022/11/03 09:03:05;;;;;;;7.10;2.30;;;;;;;14.75;100.00;100672.91;5246263;28;20105;-73
2022/11/03 09:05:36;;;;;;;5.38;1.90;;;;;;;14.80;100.00;100669.78;5247872;28;20021;-73
2022/11/03 09:08:08;;;;;;;9.30;2.40;;;;;;;14.87;100.00;100662.88;5248943;28;20457;-73
2022/11/03 09:10:39;;;;;;;6.22;2.05;;;;;;;14.91;100.00;100658.94;5245234;28;20494;-73
2022/11/03 09:13:10;;;;;;;6.55;2.20;;;;;;;14.95;100.00;100643.59;5248401;28;20040;-73
2022/11/03 09:15:41;;;;;;;7.90;2.70;;;;;;;15.05;100.00;100649.56;5245177;28;20032;-73
2022/11/03 09:18:13;;;;;;;7.65;2.55;;;;;;;15.06;100.00;100632.72;5245176;28;20031;-73
2022/11/03 09:20:44;;;;;;;9.45;2.42;;;;;;;15.12;100.00;100616.25;5243859;28;20079;-73
2022/11/03 09:23:15;;;;;;;11.25;2.28;;;;;;;15.16;100.00;100600.91;5244104;28;20059;-73
2022/11/03 09:25:47;;;;;;;8.27;2.17;;;;;;;15.19;100.00;100595.28;5245932;28;20053;-73
2022/11/03 09:28:18;;;;;;;7.15;2.25;;;;;;;15.21;100.00;100590.69;5246301;28;20082;-73
2022/11/03 09:30:49;;;;;;;7.18;2.08;;;;;;;15.20;100.00;100591.69;5245561;28;20375;-73
2022/11/03 09:33:20;;;;;;;12.18;2.50;;;;;;;15.23;100.00;100583.44;5246949;28;20021;-73
2022/11/03 09:35:52;;;;;;;8.02;2.00;;;;;;;15.27;100.00;100577.66;5246310;28;20466;-73
2022/11/03 09:38:23;;;;;;;6.35;1.92;;;;;;;15.24;100.00;100561.31;5246593;28;20033;-73
2022/11/03 09:40:55;;;;;;;8.52;2.55;;;;;;;15.31;100.00;100570.22;5243808;28;20092;-73
2022/11/03 09:43:26;;;;;;;8.43;1.70;;;;;;;15.30;100.00;100561.47;5248080;28;20126;-73
2022/11/03 09:45:58;;;;;;;8.88;2.13;;;;;;;15.32;100.00;100563.94;5246319;28;20592;-73
2022/11/03 09:48:29;;;;;;;4.13;1.55;;;;;;;15.33;100.00;100557.66;5250222;28;20413;-73
2022/11/03 09:51:01;;;;;;;7.55;1.90;;;;;;;15.29;100.00;100549.25;5250198;28;20033;-73
2022/11/03 09:53:32;;;;;;;4.82;1.98;;;;;;;15.30;100.00;100553.56;5251606;28;20041;-73
2022/11/03 09:56:04;;;;;;;6.88;1.83;;;;;;;15.32;100.00;100545.47;5248040;28;20036;-73
2022/11/03 09:58:35;;;;;;;4.97;1.70;;;;;;;15.34;100.00;100538.19;5248278;28;20120;-73
2022/11/03 10:01:10;;;;;;;6.28;1.77;;;;;;;15.41;100.00;100540.97;5246097;28;20043;-73
2022/11/03 10:03:41;;;;;;;7.63;2.33;;;;;;;15.34;100.00;100535.53;5251068;28;20025;-73
2022/11/03 10:06:12;;;;;;;9.80;2.10;;;;;;;15.31;100.00;100520.91;5252667;28;20591;-73
2022/11/03 10:08:46;;;;;;;7.10;1.90;;;;;;;15.38;100.00;100531.59;5248103;28;20390;-73
2022/11/03 10:11:17;;;;;;;8.32;2.30;;;;;;;15.33;100.00;100518.88;5247867;28;20040;-73
2022/11/03 10:13:53;;;;;;;6.07;2.55;;;;;;;15.37;100.00;100514.09;5247423;28;20041;-73
2022/11/03 10:16:25;;;;;;;11.95;2.75;;;;;;;15.33;100.00;100518.06;5251107;28;20687;-73
2022/11/03 10:18:57;;;;;;;8.85;2.33;;;;;;;15.32;100.00;100508.50;5249388;28;20111;-73
2022/11/03 10:21:34;;;;;;;5.97;2.42;;;;;;;15.36;100.00;100501.91;5249371;28;20036;-73
2022/11/03 10:24:10;;;;;;;10.80;2.38;;;;;;;15.37;100.00;100503.53;5247655;28;20118;-73
2022/11/03 10:26:50;;;;;;;7.95;2.10;;;;;;;15.43;100.00;100497.59;5249674;28;20037;-73
2022/11/03 10:29:26;;;;;;;6.32;2.40;;;;;;;15.45;100.00;100492.13;5247142;28;20331;-74
2022/11/03 10:31:57;;;;;;;9.50;2.22;;;;;;;15.39;100.00;100492.84;5245413;28;20029;-73
2022/11/03 10:34:39;;;;;;;7.68;2.03;;;;;;;15.60;100.00;100486.97;5249118;28;20029;-73
2022/11/03 10:37:19;;;;;;;5.82;2.30;;;;;;;15.62;100.00;100480.53;5247640;28;20518;-73
2022/11/03 10:39:53;;;;;;;8.35;1.88;;;;;;;15.55;100.00;100482.19;5247365;28;20032;-73
2022/11/03 10:42:29;;;;;;;6.97;1.80;;;;;;;15.70;100.00;100471.78;5239989;28;20032;-73
2022/11/03 10:45:16;;;;;;;8.23;2.38;;;;;;;15.88;100.00;100479.44;5248660;28;20029;-74
2022/11/03 10:48:03;;;;;;;6.53;1.85;;;;;;;15.95;100.00;100472.47;5247726;28;20082;-73
2022/11/03 10:50:34;;;;;;;5.15;1.85;;;;;;;15.81;100.00;100472.22;5248036;28;20572;-73
2022/11/03 10:53:16;;;;;;;5.53;1.70;;;;;;;15.97;100.00;100468.66;5249945;28;20045;-73
2022/11/03 10:55:47;;;;;;;9.27;2.05;;;;;;;15.86;100.00;100461.13;5250574;28;20536;-73
2022/11/03 10:58:19;;;;;;;7.35;2.42;;;;;;;15.95;100.00;100454.81;5246763;28;20034;-73
2022/11/03 11:00:50;;;;;;;5.97;2.00;;;;;;;16.04;100.00;100456.38;5251768;28;20466;-73
2022/11/03 11:03:21;;;;;;;11.48;2.38;;;;;;;16.09;100.00;100450.56;5247261;28;20032;-73
2022/11/03 11:05:53;;;;;;;7.82;2.10;;;;;;;16.13;100.00;100449.22;5250648;28;20135;-74
2022/11/03 11:08:24;;;;;;;8.75;1.75;;;;;;;16.17;100.00;100447.88;5245452;28;20049;-73
2022/11/03 11:10:55;;;;;;;6.35;2.38;;;;;;;16.21;100.00;100435.13;5248096;28;20651;-73
2022/11/03 11:13:27;;;;;;;10.25;2.50;;;;;;;16.18;100.00;100431.03;5247888;28;20064;-74
2022/11/03 11:16:00;;;;;;;7.28;2.70;;;;;;;16.22;100.00;100427.03;5249285;28;20028;-73
2022/11/03 11:18:32;;;;;;;8.23;2.13;;;;;;;16.25;100.00;100416.13;5237398;28;20112;-73
2022/11/03 11:21:16;;;;;;;6.05;2.20;;;;;;;16.46;100.00;100425.19;5238565;28;20143;-74
2022/11/03 11:23:48;;;;;;;5.25;1.80;;;;;;;16.34;100.00;100418.69;5233140;28;20112;-74
2022/11/03 11:26:26;;;;;;;5.82;2.15;;;;;;;16.46;100.00;100415.41;5249623;28;20051;-73
2022/11/03 11:29:10;;;;;;;4.90;1.85;;;;;;;16.59;100.00;100411.34;5246119;28;20083;-73
2022/11/03 11:31:44;;;;;;;4.93;2.05;;;;;;;16.49;100.00;100398.38;5250061;28;20363;-74
2022/11/03 11:34:17;;;;;;;7.03;1.90;;;;;;;16.43;100.00;100386.69;5245953;28;20020;-73
2022/11/03 11:36:54;;;;;;;6.00;1.83;;;;;;;16.56;100.00;100379.97;5247854;28;20072;-73
2022/11/03 11:39:25;;;;;;;6.50;2.10;;;;;;;16.51;100.00;100373.38;5249126;28;20031;-74
2022/11/03 11:42:07;;;;;;;5.30;1.90;;;;;;;16.64;100.00;100362.19;5248994;28;20029;-73
2022/11/03 11:44:38;;;;;;;6.72;2.22;;;;;;;16.60;100.00;100360.09;5249842;28;20029;-73
2022/11/03 11:47:30;;;;;;;5.03;1.80;;;;;;;16.85;100.00;100352.75;5247373;28;20078;-73
2022/11/03 11:50:04;;;;;;;5.68;1.73;;;;;;;16.70;100.00;100350.06;5246674;28;20657;-73
2022/11/03 11:52:44;;;;;;;4.88;1.80;;;;;;;16.71;100.00;100327.91;5247158;28;20496;-73
2022/11/03 11:55:30;;;;;;;5.95;1.83;;;;;;;16.81;100.00;100312.59;5247274;28;20478;-73
2022/11/03 11:58:04;;;;;;;6.70;1.70;;;;;;;16.67;100.00;100298.38;5245868;28;20108;-73
2022/11/03 12:00:35;;;;;;;7.55;2.10;;;;;;;16.68;100.00;100299.19;5246659;28;20079;-73
2022/11/03 12:03:07;;;;;;;5.93;2.22;;;;;;;16.73;100.00;100299.44;5245270;28;20021;-73
2022/11/03 12:05:38;;;;;;;7.13;1.60;;;;;;;16.76;100.00;100291.19;5246901;28;20025;-74
2022/11/03 12:08:17;;;;;;;5.82;1.83;;;;;;;16.87;100.00;100284.59;5246166;28;20343;-74
2022/11/03 12:11:00;;;;;;;5.28;2.30;;;;;;;16.94;100.00;100291.63;5250153;28;20029;-74